Weather search by city/station or by Location Indicator (LI)

Please do one of the following:
a) Search the weather station by station, city or country name and click Search button
b) Enter the four-character Location Indicator (i.e. EFHK = Helsinki) and click Submit button

a) Search the station:   

b) Location Indicator:  

The ICAO Location Indicator code is explained here.

METAR = EFHK 170250Z 28005KT 9999 -SN FEW011 BKN018 M17/M19 Q1018 BECMG BKN011

STATIONEFHK
NAMEHelsinki/Vantaa Arpt, UU, FI
OBSERVED17.01.2021 04:50 (17.01.2021 02:50 UTC), 26 min ago
TEMPERATURE-17.0°C ( 1°F)
WINDCHILL-23.3 °C (-10 °F)
WINDW (280 degrees) at 6 MPH (5 knots; 2.6 m/s)
HUMIDITY84%
PRESSURE1017.9 hPa
CONDITIONSlight snow